createdAt,value
2019-03-23T00:02:26.377Z,77.07
2019-03-23T00:04:57.234Z,69.70
2019-03-23T00:07:27.994Z,72.80
2019-03-23T00:09:58.841Z,65.97
2019-03-23T00:12:29.858Z,63.27
2019-03-23T00:15:00.520Z,81.97
2019-03-23T00:17:31.645Z,74.50
2019-03-23T00:20:02.650Z,66.27
2019-03-23T00:22:33.437Z,73.13
2019-03-23T00:25:04.542Z,74.67
2019-03-23T00:27:35.496Z,71.60
2019-03-23T00:30:08.951Z,71.20
2019-03-23T00:32:39.814Z,64.73
2019-03-23T00:35:11.090Z,70.67
2019-03-23T00:37:41.787Z,75.07
2019-03-23T00:40:13.021Z,76.50
2019-03-23T00:42:43.832Z,65.33
2019-03-23T00:45:14.804Z,69.63
2019-03-23T00:47:45.539Z,66.67
2019-03-23T00:50:16.453Z,71.50
2019-03-23T00:52:47.258Z,88.37
2019-03-23T00:55:18.016Z,64.73
2019-03-23T00:57:49.251Z,75.50
2019-03-23T01:00:20.108Z,75.33
2019-03-23T01:02:50.823Z,64.23
2019-03-23T01:05:21.650Z,70.70
2019-03-23T01:07:52.488Z,86.13
2019-03-23T01:10:23.155Z,63.20
2019-03-23T01:12:53.904Z,79.37
2019-03-23T01:15:24.609Z,56.70
2019-03-23T01:17:55.424Z,68.40
2019-03-23T01:20:26.638Z,63.10
2019-03-23T01:22:57.437Z,66.00
2019-03-23T01:25:28.312Z,66.73
2019-03-23T01:27:59.528Z,70.33
2019-03-23T01:30:30.237Z,69.83
2019-03-23T01:33:00.935Z,81.33
2019-03-23T01:35:31.675Z,99.30
2019-03-23T01:38:02.797Z,62.93
2019-03-23T01:40:33.505Z,73.13
2019-03-23T01:43:04.612Z,73.57
2019-03-23T01:45:35.420Z,70.97
2019-03-23T01:48:06.860Z,63.93
2019-03-23T01:50:38.082Z,81.43
2019-03-23T01:53:09.638Z,63.43
2019-03-23T01:55:40.552Z,64.33
2019-03-23T01:58:11.869Z,62.10
2019-03-23T02:00:42.529Z,62.87
2019-03-23T02:03:13.227Z,60.97
2019-03-23T02:05:44.383Z,66.37
2019-03-23T02:08:15.119Z,82.37
2019-03-23T02:10:46.074Z,71.97
2019-03-23T02:13:16.744Z,83.67
2019-03-23T02:15:47.672Z,64.07
2019-03-23T02:18:18.382Z,64.27
2019-03-23T02:20:49.327Z,66.20
2019-03-23T02:23:20.016Z,67.43
2019-03-23T02:25:50.683Z,63.63
2019-03-23T02:28:21.431Z,68.20
2019-03-23T02:30:52.535Z,66.13
2019-03-23T02:33:23.233Z,59.80
2019-03-23T02:35:53.915Z,68.50
2019-03-23T02:38:24.677Z,72.63
2019-03-23T02:40:55.376Z,63.50
2019-03-23T02:43:26.091Z,66.20
2019-03-23T02:45:57.628Z,64.53
2019-03-23T02:48:28.383Z,74.57
2019-03-23T02:50:59.074Z,68.30
2019-03-23T02:53:29.771Z,59.83
2019-03-23T02:56:00.505Z,64.20
2019-03-23T02:58:31.313Z,60.90
2019-03-23T03:01:02.295Z,69.93
2019-03-23T03:03:33.394Z,63.30
2019-03-23T03:06:04.387Z,60.33
2019-03-23T03:08:35.176Z,63.97
2019-03-23T03:11:06.125Z,63.80
2019-03-23T03:13:36.923Z,63.77
2019-03-23T03:16:07.697Z,58.20
2019-03-23T03:18:38.458Z,59.20
2019-03-23T03:21:09.287Z,58.20
2019-03-23T03:23:40.016Z,58.73
2019-03-23T03:26:10.914Z,60.73
2019-03-23T03:28:42.046Z,64.27
2019-03-23T03:31:12.731Z,61.30
2019-03-23T03:33:43.443Z,60.57
2019-03-23T03:36:14.200Z,60.43
2019-03-23T03:38:45.346Z,63.10
2019-03-23T03:41:16.116Z,64.50
2019-03-23T03:43:47.098Z,64.03
2019-03-23T03:46:17.802Z,59.93
2019-03-23T03:48:48.471Z,63.20
2019-03-23T03:51:19.235Z,64.20
2019-03-23T03:53:50.054Z,60.73
2019-03-23T03:56:20.741Z,64.07
2019-03-23T03:58:51.518Z,61.93
2019-03-23T04:01:22.190Z,60.77
2019-03-23T04:03:53.380Z,61.00
2019-03-23T04:06:24.101Z,61.97
2019-03-23T04:08:55.274Z,61.53
2019-03-23T04:11:26.023Z,60.03
2019-03-23T04:13:57.828Z,60.10
2019-03-23T04:16:29.341Z,56.20
2019-03-23T04:19:00.028Z,61.60
2019-03-23T04:21:30.826Z,61.20
2019-03-23T04:24:01.494Z,61.53
2019-03-23T04:26:32.447Z,60.87
2019-03-23T04:29:03.224Z,48.50
2019-03-23T04:31:34.199Z,52.20
2019-03-23T04:34:04.953Z,56.40
2019-03-23T04:36:35.640Z,51.03
2019-03-23T04:39:07.657Z,53.10
2019-03-23T04:41:38.371Z,46.93
2019-03-23T04:44:09.292Z,50.47
2019-03-23T04:46:39.952Z,55.47
2019-03-23T04:49:10.701Z,48.60
2019-03-23T04:51:41.599Z,45.63
2019-03-23T04:54:12.302Z,54.33
2019-03-23T04:56:43.415Z,48.00
2019-03-23T04:59:14.099Z,47.37
2019-03-23T05:01:44.973Z,47.83
2019-03-23T05:04:15.639Z,55.10
2019-03-23T05:06:46.800Z,53.80
2019-03-23T05:09:17.567Z,55.87
2019-03-23T05:11:48.254Z,51.93
2019-03-23T05:14:19.243Z,56.27
2019-03-23T05:16:50.212Z,55.40
2019-03-23T05:19:20.998Z,56.50
2019-03-23T05:21:51.684Z,52.77
2019-03-23T05:24:22.791Z,55.77
2019-03-23T05:26:53.488Z,59.17
2019-03-23T05:29:24.432Z,63.97
2019-03-23T05:31:55.592Z,63.80
2019-03-23T05:34:26.251Z,61.07
2019-03-23T05:36:56.965Z,59.07
2019-03-23T05:39:27.646Z,54.10
2019-03-23T05:41:58.369Z,55.83
2019-03-23T05:44:29.528Z,51.90
2019-03-23T05:47:00.261Z,50.83
2019-03-23T05:49:30.957Z,50.30
2019-03-23T05:52:01.662Z,48.20
2019-03-23T05:54:32.330Z,45.70
2019-03-23T05:57:03.047Z,47.13
2019-03-23T05:59:33.855Z,44.70
2019-03-23T06:02:04.638Z,48.70
2019-03-23T06:04:35.531Z,50.60
2019-03-23T06:07:06.220Z,47.37
2019-03-23T06:09:37.366Z,48.23
2019-03-23T06:12:08.536Z,49.87
2019-03-23T06:14:39.216Z,47.63
2019-03-23T06:17:09.965Z,49.40
2019-03-23T06:19:40.656Z,48.93
2019-03-23T06:22:11.735Z,44.13
2019-03-23T06:24:42.502Z,48.73
2019-03-23T06:27:13.196Z,49.80
2019-03-23T06:29:43.918Z,49.60
2019-03-23T06:32:14.627Z,46.77
2019-03-23T06:34:45.331Z,48.13
2019-03-23T06:37:16.019Z,44.73
2019-03-23T06:39:46.770Z,45.00
2019-03-23T06:42:17.714Z,50.07
2019-03-23T06:44:48.628Z,45.87
2019-03-23T06:47:19.576Z,42.90
2019-03-23T06:49:50.731Z,46.67
2019-03-23T06:52:21.425Z,47.57
2019-03-23T06:54:52.379Z,45.77
2019-03-23T06:57:23.274Z,46.70
2019-03-23T06:59:54.182Z,49.67
2019-03-23T07:02:25.157Z,47.73
2019-03-23T07:04:55.841Z,50.33
2019-03-23T07:07:26.612Z,46.57
2019-03-23T07:09:57.753Z,48.67
2019-03-23T07:12:28.449Z,48.67
2019-03-23T07:14:59.135Z,46.53
2019-03-23T07:17:29.815Z,46.97
2019-03-23T07:20:00.559Z,47.20
2019-03-23T07:22:31.749Z,49.20
2019-03-23T07:25:02.459Z,46.60
2019-03-23T07:27:33.189Z,50.77
2019-03-23T07:30:05.074Z,46.93
2019-03-23T07:32:35.850Z,49.97
2019-03-23T07:35:09.270Z,45.53
2019-03-23T07:37:40.136Z,49.60
2019-03-23T07:40:11.809Z,48.20
2019-03-23T07:42:42.706Z,48.27
2019-03-23T07:45:13.857Z,48.07
2019-03-23T07:47:44.624Z,49.80
2019-03-23T07:50:15.603Z,48.20
2019-03-23T07:52:46.643Z,49.87
2019-03-23T07:55:17.828Z,44.27
2019-03-23T07:57:48.713Z,48.10
2019-03-23T08:00:20.609Z,45.80
2019-03-23T08:02:51.630Z,46.57
2019-03-23T08:05:22.963Z,47.10
2019-03-23T08:07:53.785Z,49.70
2019-03-23T08:10:32.922Z,48.23
2019-03-23T08:13:04.425Z,50.47
2019-03-23T08:15:35.897Z,50.30
2019-03-23T08:18:06.697Z,53.37
2019-03-23T08:20:37.407Z,46.73
2019-03-23T08:23:08.167Z,48.87
2019-03-23T08:25:38.954Z,47.33
2019-03-23T08:28:09.672Z,45.93
2019-03-23T08:30:40.433Z,47.17
2019-03-23T08:33:11.255Z,49.47
2019-03-23T08:35:42.237Z,44.90
2019-03-23T08:38:13.045Z,49.20
2019-03-23T08:40:43.802Z,48.73
2019-03-23T08:43:14.597Z,49.57
2019-03-23T08:45:45.502Z,47.33
2019-03-23T08:48:16.525Z,46.73
2019-03-23T08:50:47.300Z,48.50
2019-03-23T08:53:18.100Z,45.87
2019-03-23T08:55:48.870Z,42.57
2019-03-23T08:58:28.215Z,48.50
2019-03-23T09:01:00.457Z,49.50
2019-03-23T09:03:31.216Z,45.50
2019-03-23T09:06:01.972Z,45.53
2019-03-23T09:08:32.700Z,47.10
2019-03-23T09:11:03.486Z,44.17
2019-03-23T09:13:40.584Z,44.57
2019-03-23T09:16:07.010Z,46.07
2019-03-23T09:18:38.234Z,47.97
2019-03-23T09:21:08.947Z,47.87
2019-03-23T09:23:39.645Z,46.90
2019-03-23T09:26:10.313Z,43.77
2019-03-23T09:28:41.456Z,45.10
2019-03-23T09:31:12.157Z,41.83
2019-03-23T09:33:42.920Z,47.97
2019-03-23T09:36:14.102Z,39.53
2019-03-23T09:38:45.106Z,41.67
2019-03-23T09:41:16.111Z,44.63
2019-03-23T09:43:46.801Z,38.10
2019-03-23T09:46:17.473Z,41.60
2019-03-23T09:48:48.138Z,43.40
2019-03-23T09:51:18.815Z,47.77
2019-03-23T09:53:49.755Z,42.40
2019-03-23T09:56:20.682Z,43.13
2019-03-23T09:58:51.648Z,43.40
2019-03-23T10:01:25.541Z,42.47
2019-03-23T10:03:56.451Z,48.10
2019-03-23T10:06:27.382Z,42.07
2019-03-23T10:08:58.225Z,50.80
2019-03-23T10:11:29.184Z,41.60
2019-03-23T10:13:59.932Z,44.70
2019-03-23T10:16:33.780Z,41.83
2019-03-23T10:19:04.518Z,42.47
2019-03-23T10:21:35.236Z,43.83
2019-03-23T10:24:05.922Z,50.30
2019-03-23T10:26:36.931Z,47.57
2019-03-23T10:29:07.617Z,40.97
2019-03-23T10:31:38.375Z,47.57
2019-03-23T10:34:09.175Z,43.80
2019-03-23T10:36:39.878Z,39.80
2019-03-23T10:39:10.605Z,42.27
2019-03-23T10:41:41.387Z,39.83
2019-03-23T10:44:12.219Z,38.43
2019-03-23T10:46:44.828Z,49.23
2019-03-23T10:49:16.501Z,46.57
2019-03-23T10:51:51.678Z,41.87
2019-03-23T10:54:30.785Z,50.13
2019-03-23T10:57:02.075Z,48.97
2019-03-23T10:59:34.201Z,44.23
2019-03-23T11:02:06.423Z,48.57
2019-03-23T11:05:05.915Z,46.80
2019-03-23T11:07:37.367Z,48.80
2019-03-23T11:10:12.916Z,51.00
2019-03-23T11:12:45.309Z,54.43
2019-03-23T11:15:19.924Z,51.77
2019-03-23T11:17:52.811Z,47.20
2019-03-23T11:20:24.413Z,55.70
2019-03-23T11:22:55.293Z,56.60
2019-03-23T11:25:29.886Z,50.33
2019-03-23T11:28:00.705Z,56.43
2019-03-23T11:30:35.355Z,56.30
2019-03-23T11:33:06.894Z,55.00
2019-03-23T11:35:37.711Z,54.27
2019-03-23T11:38:09.389Z,60.93
2019-03-23T11:40:52.774Z,60.97
2019-03-23T11:43:15.616Z,58.60
2019-03-23T11:45:48.570Z,56.00
2019-03-23T11:48:19.441Z,55.93
2019-03-23T11:50:50.205Z,61.37
2019-03-23T11:53:29.878Z,62.10
2019-03-23T11:56:12.272Z,59.13
2019-03-23T11:58:43.686Z,62.23
2019-03-23T12:01:16.711Z,60.47
2019-03-23T12:03:47.415Z,61.73
2019-03-23T12:06:19.615Z,59.43
2019-03-23T12:08:50.394Z,58.60
2019-03-23T12:11:21.407Z,55.00
2019-03-23T12:13:52.222Z,58.63
2019-03-23T12:16:23.160Z,58.63
2019-03-23T12:18:53.908Z,52.03
2019-03-23T12:21:25.007Z,56.93
2019-03-23T12:23:55.828Z,61.47
2019-03-23T12:26:27.481Z,56.33
2019-03-23T12:28:58.841Z,60.43
2019-03-23T12:31:29.532Z,55.80
2019-03-23T12:34:00.515Z,48.87
2019-03-23T12:36:31.342Z,60.70
2019-03-23T12:39:02.068Z,61.00
2019-03-23T12:41:32.761Z,64.03
2019-03-23T12:44:03.631Z,54.33
2019-03-23T12:46:34.744Z,64.27
2019-03-23T12:49:05.562Z,64.50
2019-03-23T12:51:36.245Z,49.63
2019-03-23T12:54:06.986Z,51.20
2019-03-23T12:56:37.944Z,61.10
2019-03-23T12:59:08.632Z,64.57
2019-03-23T13:01:40.180Z,54.30
2019-03-23T13:04:11.117Z,58.90
2019-03-23T13:06:41.954Z,57.27
2019-03-23T13:09:12.655Z,52.63
2019-03-23T13:11:43.828Z,58.60
2019-03-23T13:14:17.820Z,54.33
2019-03-23T13:16:48.780Z,54.57
2019-03-23T13:19:19.598Z,48.93
2019-03-23T13:21:50.572Z,46.63
2019-03-23T13:24:22.712Z,47.97
2019-03-23T13:26:53.938Z,46.97
2019-03-23T13:29:24.966Z,55.60
2019-03-23T13:31:56.251Z,50.97
2019-03-23T13:34:28.918Z,44.63
2019-03-23T13:36:59.997Z,42.17
2019-03-23T13:39:32.573Z,42.57
2019-03-23T13:42:03.520Z,45.07
2019-03-23T13:44:37.863Z,44.13
2019-03-23T13:47:08.972Z,42.67
2019-03-23T13:49:40.091Z,47.33
2019-03-23T13:52:10.873Z,42.13
2019-03-23T13:54:41.752Z,45.13
2019-03-23T13:57:15.993Z,44.67
2019-03-23T13:59:46.969Z,38.37
2019-03-23T14:02:22.692Z,40.33
2019-03-23T14:04:56.530Z,41.03
2019-03-23T14:07:27.700Z,40.23
2019-03-23T14:10:05.986Z,41.07
2019-03-23T14:12:37.223Z,37.80
2019-03-23T14:15:13.470Z,38.47
2019-03-23T14:17:47.443Z,40.53
2019-03-23T14:20:18.303Z,39.60
2019-03-23T14:22:49.825Z,42.23
2019-03-23T14:25:23.957Z,39.50
2019-03-23T14:27:55.328Z,39.57
2019-03-23T14:30:26.973Z,40.80
2019-03-23T14:32:58.269Z,39.17
2019-03-23T14:35:29.149Z,37.63
2019-03-23T14:38:00.001Z,41.47
2019-03-23T14:40:32.429Z,42.67
2019-03-23T14:43:03.373Z,44.67
2019-03-23T14:45:36.925Z,42.60
2019-03-23T14:48:10.592Z,43.57
2019-03-23T14:50:42.709Z,39.83
2019-03-23T14:53:16.762Z,38.60
2019-03-23T14:55:48.426Z,36.00
2019-03-23T14:58:19.715Z,40.63
2019-03-23T15:04:13.563Z,43.13
2019-03-23T15:07:08.898Z,36.90
2019-03-23T15:09:31.654Z,40.73
2019-03-23T15:12:14.754Z,38.33
2019-03-23T15:14:40.095Z,42.63
2019-03-23T15:17:13.873Z,40.87
2019-03-23T15:19:45.448Z,37.20
2019-03-23T15:22:19.285Z,35.13
2019-03-23T15:25:11.421Z,35.13
2019-03-23T15:28:23.066Z,33.43
2019-03-23T15:30:58.517Z,36.77
2019-03-23T15:33:48.433Z,38.97
2019-03-23T15:36:30.786Z,40.00
2019-03-23T15:39:14.090Z,35.30
2019-03-23T15:42:05.121Z,36.67
2019-03-23T15:44:45.638Z,34.90
2019-03-23T15:47:51.417Z,33.53
2019-03-23T15:52:15.902Z,35.20
2019-03-23T15:53:33.023Z,33.20
2019-03-23T15:56:08.804Z,32.40
2019-03-23T16:02:01.890Z,32.50
2019-03-23T16:04:34.641Z,36.17
2019-03-23T16:07:12.871Z,30.87
2019-03-23T16:09:49.019Z,35.17
2019-03-23T16:12:19.751Z,34.97
2019-03-23T16:14:55.100Z,30.60
2019-03-23T16:17:25.829Z,35.60
2019-03-23T16:20:15.157Z,31.63
2019-03-23T16:22:46.558Z,30.77
2019-03-23T16:25:18.924Z,32.63
2019-03-23T16:27:58.962Z,33.50
2019-03-23T16:30:34.069Z,30.50
2019-03-23T16:33:05.010Z,32.23
2019-03-23T16:35:35.932Z,29.00
2019-03-23T16:38:06.877Z,26.47
2019-03-23T16:40:40.167Z,30.50
2019-03-23T16:43:11.199Z,25.10
2019-03-23T16:45:42.265Z,26.13
2019-03-23T16:48:13.633Z,22.67
2019-03-23T16:50:44.536Z,23.93
2019-03-23T16:53:15.690Z,21.60
2019-03-23T16:55:46.939Z,23.20
2019-03-23T16:58:18.380Z,22.03
2019-03-23T17:00:49.523Z,20.17
2019-03-23T17:03:27.711Z,22.67
2019-03-23T17:05:59.392Z,22.37
2019-03-23T17:08:30.502Z,21.87
2019-03-23T17:11:04.793Z,24.53
2019-03-23T17:13:36.404Z,20.13
2019-03-23T17:16:07.225Z,24.03
2019-03-23T17:18:37.923Z,20.40
2019-03-23T17:21:09.163Z,18.53
2019-03-23T17:23:44.882Z,22.33
2019-03-23T17:26:16.284Z,19.27
2019-03-23T17:28:47.417Z,18.93
2019-03-23T17:31:21.459Z,19.03
2019-03-23T17:36:59.975Z,19.33
2019-03-23T17:39:34.912Z,18.10
2019-03-23T17:42:07.788Z,20.00
2019-03-23T17:44:42.655Z,17.27
2019-03-23T17:47:23.084Z,20.53
2019-03-23T17:49:54.476Z,20.20
2019-03-23T17:52:47.344Z,17.63
2019-03-23T17:55:18.245Z,17.97
2019-03-23T17:57:49.307Z,19.90
2019-03-23T18:00:21.637Z,16.83
2019-03-23T18:02:52.940Z,19.27
2019-03-23T18:05:27.368Z,17.50
2019-03-23T18:07:58.484Z,18.23
2019-03-23T18:10:29.414Z,18.93
2019-03-23T18:13:00.649Z,19.13
2019-03-23T18:15:31.474Z,18.97
2019-03-23T18:18:11.132Z,17.33
2019-03-23T18:20:42.027Z,19.70
2019-03-23T18:23:15.691Z,18.67
2019-03-23T18:25:46.296Z,19.47
2019-03-23T18:28:18.592Z,17.20
2019-03-23T18:30:49.893Z,21.63
2019-03-23T18:33:20.952Z,18.17
2019-03-23T18:35:59.820Z,21.23
2019-03-23T18:38:30.998Z,22.03
2019-03-23T18:41:02.882Z,19.97
2019-03-23T18:43:34.381Z,19.77
2019-03-23T18:46:08.579Z,22.30
2019-03-23T18:48:40.535Z,24.57
2019-03-23T18:51:11.409Z,24.50
2019-03-23T18:53:42.427Z,27.33
2019-03-23T18:56:13.933Z,25.03
2019-03-23T18:58:44.876Z,25.20
2019-03-23T19:01:23.694Z,23.67
2019-03-23T19:03:54.590Z,25.03
2019-03-23T19:06:26.421Z,27.93
2019-03-23T19:08:57.569Z,28.03
2019-03-23T19:11:28.387Z,27.93
2019-03-23T19:13:59.281Z,29.47
2019-03-23T19:16:30.225Z,27.33
2019-03-23T19:19:00.944Z,31.93
2019-03-23T19:21:31.843Z,31.80
2019-03-23T19:24:02.710Z,29.17
2019-03-23T19:26:33.706Z,32.70
2019-03-23T19:29:04.612Z,33.37
2019-03-23T19:31:35.525Z,33.37
2019-03-23T19:34:09.931Z,34.03
2019-03-23T19:36:41.631Z,33.63
2019-03-23T19:39:12.555Z,31.03
2019-03-23T19:41:43.512Z,34.20
2019-03-23T19:44:14.809Z,35.37
2019-03-23T19:46:45.557Z,35.37
2019-03-23T19:49:16.479Z,37.30
2019-03-23T19:51:47.623Z,32.30
2019-03-23T19:54:18.651Z,38.20
2019-03-23T19:56:49.398Z,34.03
2019-03-23T19:59:20.630Z,34.37
2019-03-23T20:01:52.565Z,35.00
2019-03-23T20:04:23.839Z,37.00
2019-03-23T20:06:54.578Z,42.13
2019-03-23T20:09:25.477Z,40.90
2019-03-23T20:11:58.062Z,39.27
2019-03-23T20:14:29.043Z,43.80
2019-03-23T20:16:59.967Z,37.63
2019-03-23T20:19:30.841Z,39.00
2019-03-23T20:22:01.768Z,41.17
2019-03-23T20:24:39.286Z,43.83
2019-03-23T20:27:10.255Z,40.87
2019-03-23T20:29:43.287Z,38.30
2019-03-23T20:32:14.013Z,38.93
2019-03-23T20:34:45.340Z,37.00
2019-03-23T20:37:16.592Z,31.20
2019-03-23T20:39:47.448Z,35.40
2019-03-23T20:42:18.229Z,32.40
2019-03-23T20:44:49.001Z,33.93
2019-03-23T20:47:20.045Z,31.30
2019-03-23T20:49:51.067Z,30.33
2019-03-23T20:52:22.734Z,32.57
2019-03-23T20:54:53.928Z,32.97
2019-03-23T20:57:24.726Z,33.30
2019-03-23T20:59:55.715Z,32.07
2019-03-23T21:02:26.403Z,33.97
2019-03-23T21:04:57.560Z,34.37
2019-03-23T21:07:28.259Z,36.23
2019-03-23T21:09:59.018Z,31.93
2019-03-23T21:12:29.730Z,35.33
2019-03-23T21:15:00.714Z,32.53
2019-03-23T21:17:31.554Z,33.07
2019-03-23T21:20:02.257Z,36.60
2019-03-23T21:22:33.319Z,40.10
2019-03-23T21:25:04.594Z,37.17
2019-03-23T21:27:35.302Z,35.67
2019-03-23T21:30:08.053Z,33.83
2019-03-23T21:32:38.908Z,37.27
2019-03-23T21:35:09.911Z,36.20
2019-03-23T21:37:41.129Z,39.03
2019-03-23T21:40:12.561Z,37.03
2019-03-23T21:42:43.290Z,33.67
2019-03-23T21:45:14.499Z,33.60
2019-03-23T21:47:45.224Z,33.97
2019-03-23T21:50:16.127Z,35.40
2019-03-23T21:52:47.057Z,33.63
2019-03-23T21:55:17.796Z,34.87
2019-03-23T21:57:48.771Z,34.57
2019-03-23T22:00:34.876Z,34.00
2019-03-23T22:03:05.972Z,29.70
2019-03-23T22:05:37.010Z,32.23
2019-03-23T22:08:07.743Z,37.17
2019-03-23T22:10:38.562Z,33.17
2019-03-23T22:13:09.268Z,27.57
2019-03-23T22:15:40.049Z,35.27
2019-03-23T22:18:10.801Z,32.17
2019-03-23T22:20:41.539Z,34.27
2019-03-23T22:23:12.656Z,32.70
2019-03-23T22:25:43.306Z,31.20
2019-03-23T22:28:14.052Z,32.60
2019-03-23T22:30:44.768Z,32.40
2019-03-23T22:33:15.795Z,30.27
2019-03-23T22:35:46.531Z,36.77
2019-03-23T22:38:17.264Z,37.57
2019-03-23T22:40:48.361Z,36.20
2019-03-23T22:43:19.231Z,35.30
2019-03-23T22:45:49.959Z,35.17
2019-03-23T22:48:20.804Z,35.03
2019-03-23T22:50:51.525Z,35.43
2019-03-23T22:53:22.227Z,35.43
2019-03-23T22:55:53.200Z,37.13
2019-03-23T22:58:24.161Z,38.37
2019-03-23T23:00:56.220Z,39.23
2019-03-23T23:03:27.007Z,38.37
2019-03-23T23:05:58.040Z,42.63
2019-03-23T23:08:31.905Z,35.73
2019-03-23T23:11:02.570Z,43.43
2019-03-23T23:13:33.648Z,38.00
2019-03-23T23:16:04.761Z,36.80
2019-03-23T23:18:35.478Z,42.50
2019-03-23T23:21:06.488Z,41.57
2019-03-23T23:23:37.114Z,42.87
2019-03-23T23:26:07.828Z,42.33
2019-03-23T23:28:38.937Z,41.17
2019-03-23T23:31:09.816Z,40.47
2019-03-23T23:33:40.939Z,46.23
2019-03-23T23:36:11.952Z,46.37
2019-03-23T23:38:42.913Z,43.93
2019-03-23T23:41:14.039Z,44.93
2019-03-23T23:43:45.142Z,44.33
2019-03-23T23:46:15.948Z,44.97
2019-03-23T23:48:51.137Z,38.20
2019-03-23T23:51:19.507Z,42.60
2019-03-23T23:53:50.671Z,41.53
2019-03-23T23:56:22.324Z,41.00
2019-03-23T23:58:53.063Z,42.17
